createdAt,value
2018-11-04T00:00:18.313Z,106.27
2018-11-04T00:02:46.061Z,105.70
2018-11-04T00:05:13.485Z,108.93
2018-11-04T00:07:40.641Z,112.30
2018-11-04T00:10:08.424Z,109.43
2018-11-04T00:12:35.501Z,104.47
2018-11-04T00:15:02.742Z,115.73
2018-11-04T00:17:29.830Z,111.90
2018-11-04T00:19:56.910Z,112.60
2018-11-04T00:22:24.045Z,112.23
2018-11-04T00:24:51.115Z,108.73
2018-11-04T00:27:18.235Z,107.37
2018-11-04T00:29:45.388Z,103.00
2018-11-04T00:32:12.429Z,111.43
2018-11-04T00:34:39.497Z,107.97
2018-11-04T00:37:07.266Z,112.93
2018-11-04T00:39:34.333Z,112.97
2018-11-04T00:42:01.400Z,106.93
2018-11-04T00:44:28.729Z,113.50
2018-11-04T00:46:55.805Z,111.50
2018-11-04T00:49:22.937Z,109.70
2018-11-04T00:51:50.037Z,114.47
2018-11-04T00:54:17.137Z,113.33
2018-11-04T00:56:44.249Z,115.47
2018-11-04T00:59:11.357Z,115.27
2018-11-04T01:01:38.515Z,112.87
2018-11-04T01:04:05.549Z,111.83
2018-11-04T01:06:32.648Z,114.07
2018-11-04T01:08:59.792Z,112.07
2018-11-04T01:11:26.885Z,111.83
2018-11-04T01:13:53.953Z,116.70
2018-11-04T01:16:21.086Z,112.60
2018-11-04T01:18:48.175Z,112.87
2018-11-04T01:21:15.339Z,116.53
2018-11-04T01:23:42.405Z,118.47
2018-11-04T01:26:09.486Z,112.73
2018-11-04T01:28:36.613Z,114.53
2018-11-04T01:31:03.837Z,116.87
2018-11-04T01:33:30.924Z,116.47
2018-11-04T01:35:58.011Z,118.67
2018-11-04T01:38:25.121Z,113.27
2018-11-04T01:40:52.278Z,117.77
2018-11-04T01:43:19.381Z,114.87
2018-11-04T01:45:46.481Z,116.83
2018-11-04T01:48:13.546Z,116.57
2018-11-04T01:50:40.661Z,113.83
2018-11-04T01:53:07.721Z,117.30
2018-11-04T01:55:34.828Z,120.60
2018-11-04T01:58:01.937Z,118.83
2018-11-04T02:00:29.025Z,116.73
2018-11-04T02:02:56.145Z,118.67
2018-11-04T02:05:23.410Z,121.17
2018-11-04T02:07:50.513Z,122.80
2018-11-04T02:10:18.057Z,117.97
2018-11-04T02:12:45.161Z,118.33
2018-11-04T02:15:12.778Z,123.67
2018-11-04T02:17:40.927Z,116.70
2018-11-04T02:20:09.649Z,117.53
2018-11-04T02:22:36.797Z,116.43
2018-11-04T02:25:04.758Z,118.20
2018-11-04T02:27:31.869Z,118.37
2018-11-04T02:29:58.970Z,114.73
2018-11-04T02:32:26.097Z,119.83
2018-11-04T02:34:53.190Z,117.30
2018-11-04T02:37:20.254Z,119.17
2018-11-04T02:39:47.357Z,115.67
2018-11-04T02:42:14.429Z,116.33
2018-11-04T02:44:41.546Z,120.60
2018-11-04T02:47:08.687Z,119.93
2018-11-04T02:49:35.762Z,114.57
2018-11-04T02:52:02.830Z,118.67
2018-11-04T02:54:29.894Z,113.87
2018-11-04T02:56:57.026Z,122.90
2018-11-04T02:59:24.128Z,123.90
2018-11-04T03:01:51.248Z,118.13
2018-11-04T03:04:18.373Z,123.03
2018-11-04T03:06:45.672Z,117.73
2018-11-04T03:09:12.750Z,118.37
2018-11-04T03:11:39.849Z,121.67
2018-11-04T03:14:06.963Z,122.17
2018-11-04T03:16:34.049Z,120.73
2018-11-04T03:19:01.189Z,114.20
2018-11-04T03:21:28.282Z,118.57
2018-11-04T03:23:55.375Z,118.63
2018-11-04T03:26:22.453Z,119.53
2018-11-04T03:28:49.565Z,119.10
2018-11-04T03:31:16.666Z,117.07
2018-11-04T03:33:43.726Z,117.53
2018-11-04T03:36:10.821Z,116.30
2018-11-04T03:38:37.892Z,124.93
2018-11-04T03:41:05.193Z,119.80
2018-11-04T03:43:32.278Z,117.47
2018-11-04T03:45:59.377Z,120.37
2018-11-04T03:48:26.445Z,120.03
2018-11-04T03:50:53.553Z,119.73
2018-11-04T03:53:20.645Z,118.77
2018-11-04T03:55:47.745Z,115.33
2018-11-04T03:58:14.850Z,123.80
2018-11-04T04:00:41.949Z,124.60
2018-11-04T04:03:09.127Z,115.43
2018-11-04T04:05:36.201Z,180.37
2018-11-04T04:08:03.278Z,121.00
2018-11-04T04:10:30.389Z,120.33
2018-11-04T04:12:57.481Z,190.93
2018-11-04T04:15:24.576Z,205.70
2018-11-04T04:17:51.698Z,235.30
2018-11-04T04:20:18.779Z,136.83
2018-11-04T04:22:45.896Z,224.20
2018-11-04T04:25:13.056Z,253.62
2018-11-04T04:27:40.174Z,292.20
2018-11-04T04:30:08.657Z,363.17
2018-11-04T04:32:35.769Z,155.50
2018-11-04T04:35:02.898Z,239.20
2018-11-04T04:37:30.019Z,252.15
2018-11-04T04:39:57.153Z,308.95
2018-11-04T04:42:24.313Z,389.52
2018-11-04T04:44:51.451Z,432.82
2018-11-04T04:47:25.549Z,450.10
2018-11-04T04:49:52.677Z,175.03
2018-11-04T04:52:19.816Z,300.30
2018-11-04T04:54:46.926Z,274.07
2018-11-04T04:57:14.037Z,337.12
2018-11-04T04:59:41.098Z,169.57
2018-11-04T05:02:08.205Z,140.07
2018-11-04T05:04:35.286Z,131.70
2018-11-04T05:07:02.378Z,138.73
2018-11-04T05:09:29.449Z,136.83
2018-11-04T05:11:56.549Z,133.50
2018-11-04T05:14:23.668Z,136.43
2018-11-04T05:16:50.813Z,190.57
2018-11-04T05:19:18.153Z,161.60
2018-11-04T05:21:45.273Z,197.53
2018-11-04T05:24:12.396Z,171.50
2018-11-04T05:26:39.498Z,137.85
2018-11-04T05:29:06.625Z,123.78
2018-11-04T05:31:33.742Z,118.50
2018-11-04T05:34:00.871Z,116.55
2018-11-04T05:36:27.961Z,166.97
2018-11-04T05:38:55.065Z,425.85
2018-11-04T05:41:22.173Z,450.83
2018-11-04T05:43:49.252Z,12.60
2018-11-04T05:46:16.360Z,157.65
2018-11-04T05:48:43.479Z,192.20
2018-11-04T05:51:10.875Z,190.00
2018-11-04T05:53:39.016Z,190.80
2018-11-04T05:56:06.157Z,198.00
2018-11-04T05:58:33.242Z,221.25
2018-11-04T06:01:00.328Z,205.60
2018-11-04T06:03:27.445Z,203.40
2018-11-04T06:05:54.628Z,204.15
2018-11-04T06:08:21.665Z,214.13
2018-11-04T06:10:48.798Z,191.22
2018-11-04T06:13:15.877Z,210.38
2018-11-04T06:15:42.972Z,199.60
2018-11-04T06:18:10.922Z,201.42
2018-11-04T06:20:38.054Z,200.95
2018-11-04T06:23:05.163Z,193.93
2018-11-04T06:25:32.265Z,203.12
2018-11-04T06:27:59.401Z,189.45
2018-11-04T06:30:26.525Z,194.37
2018-11-04T06:32:53.687Z,160.97
2018-11-04T06:35:20.790Z,192.40
2018-11-04T06:37:47.911Z,198.25
2018-11-04T06:40:15.085Z,195.00
2018-11-04T06:42:42.209Z,199.17
2018-11-04T06:45:10.077Z,176.45
2018-11-04T06:47:37.504Z,196.10
2018-11-04T06:50:06.712Z,167.47
2018-11-04T06:52:33.830Z,193.70
2018-11-04T06:55:00.941Z,174.38
2018-11-04T06:57:28.049Z,184.13
2018-11-04T06:59:55.236Z,177.00
2018-11-04T07:02:22.297Z,170.07
2018-11-04T07:04:49.414Z,185.22
2018-11-04T07:07:16.573Z,178.05
2018-11-04T07:09:43.662Z,191.07
2018-11-04T07:12:10.781Z,169.07
2018-11-04T07:14:37.903Z,175.40
2018-11-04T07:17:05.038Z,188.78
2018-11-04T07:19:32.158Z,179.60
2018-11-04T07:21:59.277Z,182.55
2018-11-04T07:24:26.386Z,180.35
2018-11-04T07:26:53.454Z,179.72
2018-11-04T07:29:20.597Z,168.45
2018-11-04T07:31:47.776Z,155.12
2018-11-04T07:34:14.878Z,157.40
2018-11-04T07:36:42.117Z,172.40
2018-11-04T07:39:11.629Z,169.30
2018-11-04T07:41:39.814Z,170.80
2018-11-04T07:44:06.945Z,154.63
2018-11-04T07:46:34.085Z,153.53
2018-11-04T07:49:01.182Z,177.47
2018-11-04T07:51:28.344Z,141.35
2018-11-04T07:53:55.421Z,155.63
2018-11-04T07:56:22.513Z,170.30
2018-11-04T07:58:49.698Z,152.72
2018-11-04T08:01:16.887Z,140.82
2018-11-04T08:03:44.018Z,154.87
2018-11-04T08:06:11.125Z,178.23
2018-11-04T08:08:38.212Z,208.70
2018-11-04T08:11:05.307Z,152.73
2018-11-04T08:13:36.483Z,166.85
2018-11-04T08:16:03.912Z,137.47
2018-11-04T08:18:31.049Z,143.87
2018-11-04T08:20:58.167Z,154.10
2018-11-04T08:23:25.341Z,167.95
2018-11-04T08:25:52.450Z,160.78
2018-11-04T08:28:19.573Z,155.32
2018-11-04T08:30:46.740Z,170.73
2018-11-04T08:33:13.897Z,156.43
2018-11-04T08:35:40.964Z,148.30
2018-11-04T08:38:08.130Z,151.45
2018-11-04T08:40:35.278Z,151.85
2018-11-04T08:43:02.404Z,162.37
2018-11-04T08:45:29.512Z,154.70
2018-11-04T08:47:56.641Z,142.25
2018-11-04T08:50:23.756Z,154.32
2018-11-04T08:52:50.829Z,152.90
2018-11-04T08:55:17.938Z,153.15
2018-11-04T08:57:45.025Z,146.90
2018-11-04T09:00:14.274Z,144.30
2018-11-04T09:02:41.781Z,134.90
2018-11-04T09:05:09.380Z,167.07
2018-11-04T09:07:36.523Z,131.78
2018-11-04T09:10:06.004Z,137.62
2018-11-04T09:12:33.559Z,135.32
2018-11-04T09:15:00.833Z,154.78
2018-11-04T09:17:27.958Z,148.00
2018-11-04T09:19:55.108Z,154.05
2018-11-04T09:22:22.381Z,130.25
2018-11-04T09:24:49.385Z,133.93
2018-11-04T09:27:17.561Z,127.30
2018-11-04T09:29:44.708Z,133.35
2018-11-04T09:32:11.811Z,131.03
2018-11-04T09:34:38.954Z,131.97
2018-11-04T09:37:06.128Z,116.47
2018-11-04T09:39:33.269Z,128.20
2018-11-04T09:42:00.402Z,125.02
2018-11-04T09:44:27.541Z,130.00
2018-11-04T09:46:54.658Z,142.43
2018-11-04T09:49:21.790Z,128.75
2018-11-04T09:51:48.913Z,130.80
2018-11-04T09:54:16.026Z,148.60
2018-11-04T09:56:43.239Z,118.67
2018-11-04T09:59:10.396Z,144.20
2018-11-04T10:01:37.530Z,137.55
2018-11-04T10:04:04.760Z,131.97
2018-11-04T10:06:31.896Z,128.35
2018-11-04T10:08:59.006Z,127.55
2018-11-04T10:11:26.148Z,131.10
2018-11-04T10:13:53.257Z,141.12
2018-11-04T10:16:20.486Z,120.70
2018-11-04T10:18:47.545Z,117.60
2018-11-04T10:21:14.686Z,118.22
2018-11-04T10:23:41.808Z,121.17
2018-11-04T10:26:08.936Z,127.45
2018-11-04T10:28:36.070Z,130.50
2018-11-04T10:31:03.165Z,118.85
2018-11-04T10:33:30.476Z,119.82
2018-11-04T10:35:57.584Z,116.22
2018-11-04T10:38:24.648Z,117.80
2018-11-04T10:40:51.792Z,125.33
2018-11-04T10:43:18.861Z,126.15
2018-11-04T10:45:46.005Z,110.97
2018-11-04T10:48:13.084Z,120.42
2018-11-04T10:50:40.156Z,120.72
2018-11-04T10:53:07.320Z,111.95
2018-11-04T10:55:34.458Z,113.23
2018-11-04T10:58:01.575Z,128.72
2018-11-04T11:00:35.504Z,132.53
2018-11-04T11:03:02.922Z,127.40
2018-11-04T11:05:30.006Z,138.40
2018-11-04T11:07:57.141Z,139.28
2018-11-04T11:10:24.228Z,142.95
2018-11-04T11:12:51.304Z,148.35
2018-11-04T11:15:18.533Z,139.40
2018-11-04T11:17:45.772Z,141.55
2018-11-04T11:20:12.957Z,135.40
2018-11-04T11:22:40.718Z,129.50
2018-11-04T11:25:08.242Z,141.60
2018-11-04T11:27:35.404Z,128.23
2018-11-04T11:30:02.609Z,137.55
2018-11-04T11:32:29.721Z,132.87
2018-11-04T11:34:56.898Z,103.50
2018-11-04T11:37:24.181Z,124.55
2018-11-04T11:39:51.302Z,124.33
2018-11-04T11:42:18.417Z,113.30
2018-11-04T11:44:45.672Z,107.78
2018-11-04T11:47:12.798Z,117.62
2018-11-04T11:49:39.941Z,126.20
2018-11-04T11:52:07.127Z,138.47
2018-11-04T11:54:34.283Z,129.27
2018-11-04T11:57:01.429Z,122.28
2018-11-04T11:59:28.802Z,125.87
2018-11-04T12:01:55.863Z,120.37
2018-11-04T12:04:23.050Z,138.82
2018-11-04T12:06:50.214Z,130.55
2018-11-04T12:09:17.353Z,154.40
2018-11-04T12:11:44.529Z,145.50
2018-11-04T12:14:11.808Z,146.55
2018-11-04T12:16:38.974Z,156.50
2018-11-04T12:19:06.222Z,153.85
2018-11-04T12:21:33.366Z,134.00
2018-11-04T12:24:00.484Z,150.72
2018-11-04T12:26:27.709Z,145.85
2018-11-04T12:28:54.874Z,151.32
2018-11-04T12:31:22.030Z,136.32
2018-11-04T12:33:49.285Z,120.90
2018-11-04T12:36:16.441Z,124.35
2018-11-04T12:38:43.713Z,133.30
2018-11-04T12:41:10.901Z,154.07
2018-11-04T12:43:38.089Z,143.35
2018-11-04T12:46:05.324Z,121.47
2018-11-04T12:48:32.432Z,123.50
2018-11-04T12:50:59.589Z,114.92
2018-11-04T12:53:26.692Z,124.70
2018-11-04T12:55:56.157Z,128.90
2018-11-04T12:58:23.261Z,118.85
2018-11-04T13:00:50.396Z,121.53
2018-11-04T13:03:17.485Z,131.47
2018-11-04T13:05:44.701Z,114.15
2018-11-04T13:08:11.801Z,121.33
2018-11-04T13:10:39.010Z,127.10
2018-11-04T13:13:06.152Z,108.65
2018-11-04T13:15:33.258Z,126.90
2018-11-04T13:18:00.382Z,110.57
2018-11-04T13:20:27.490Z,122.65
2018-11-04T13:22:54.633Z,101.30
2018-11-04T13:25:21.744Z,107.95
2018-11-04T13:27:48.949Z,125.45
2018-11-04T13:30:16.277Z,124.12
2018-11-04T13:32:43.414Z,117.70
2018-11-04T13:35:11.556Z,124.40
2018-11-04T13:37:38.697Z,128.60
2018-11-04T13:40:07.391Z,112.68
2018-11-04T13:42:34.501Z,116.85
2018-11-04T13:45:01.592Z,109.90
2018-11-04T13:47:28.749Z,107.00
2018-11-04T13:49:55.934Z,90.25
2018-11-04T13:52:23.121Z,103.07
2018-11-04T13:54:50.307Z,102.10
2018-11-04T13:57:17.501Z,94.17
2018-11-04T13:59:44.738Z,158.70
2018-11-04T14:02:11.902Z,111.45
2018-11-04T14:04:39.064Z,103.07
2018-11-04T14:07:06.165Z,84.85
2018-11-04T14:09:33.232Z,132.30
2018-11-04T14:12:00.310Z,114.08
2018-11-04T14:14:27.407Z,125.95
2018-11-04T14:16:54.497Z,114.45
2018-11-04T14:19:21.587Z,104.90
2018-11-04T14:21:48.677Z,113.50
2018-11-04T14:24:15.753Z,61.90
2018-11-04T14:26:42.857Z,77.25
2018-11-04T14:29:09.969Z,60.30
2018-11-04T14:31:37.061Z,117.30
2018-11-04T14:34:04.413Z,100.47
2018-11-04T14:36:31.514Z,126.35
2018-11-04T14:38:58.937Z,125.72
2018-11-04T14:41:26.028Z,117.87
2018-11-04T14:43:53.113Z,122.80
2018-11-04T14:46:20.195Z,124.78
2018-11-04T14:48:53.261Z,131.40
2018-11-04T14:51:20.347Z,71.63
2018-11-04T14:53:47.444Z,96.80
2018-11-04T14:56:14.553Z,125.50
2018-11-04T14:58:41.626Z,126.00
2018-11-04T15:01:08.801Z,120.35
2018-11-04T15:03:35.805Z,126.93
2018-11-04T15:06:04.109Z,121.53
2018-11-04T15:08:31.348Z,98.27
2018-11-04T15:10:58.487Z,114.45
2018-11-04T15:13:25.647Z,117.30
2018-11-04T15:15:52.873Z,105.85
2018-11-04T15:18:19.984Z,110.25
2018-11-04T15:20:47.103Z,109.90
2018-11-04T15:23:14.217Z,112.32
2018-11-04T15:25:42.370Z,49.18
2018-11-04T15:28:09.474Z,117.13
2018-11-04T15:30:36.601Z,106.58
2018-11-04T15:33:04.138Z,100.85
2018-11-04T15:35:31.245Z,69.05
2018-11-04T15:37:58.410Z,129.23
2018-11-04T15:40:25.501Z,96.85
2018-11-04T15:42:52.585Z,117.72
2018-11-04T15:45:19.704Z,110.72
2018-11-04T15:47:46.873Z,94.75
2018-11-04T15:50:15.385Z,95.42
2018-11-04T15:52:43.512Z,99.10
2018-11-04T15:55:10.638Z,112.00
2018-11-04T15:57:37.809Z,107.37
2018-11-04T16:00:07.361Z,98.55
2018-11-04T16:02:34.516Z,124.10
2018-11-04T16:09:54.993Z,53.80
2018-11-04T16:14:48.819Z,55.30
2018-11-04T16:17:15.896Z,50.40
2018-11-04T16:24:36.296Z,48.80
2018-11-04T16:29:30.125Z,63.00
2018-11-04T16:31:57.773Z,49.80
2018-11-04T16:39:18.212Z,53.10
2018-11-04T16:41:45.285Z,42.80
2018-11-04T16:46:39.289Z,51.10
2018-11-04T16:49:06.886Z,48.20
2018-11-04T16:54:00.676Z,52.40
2018-11-04T16:58:54.770Z,48.50
2018-11-04T17:01:21.878Z,54.70
2018-11-04T17:03:48.985Z,53.80
2018-11-04T17:06:16.097Z,54.40
2018-11-04T17:13:36.612Z,59.40
2018-11-04T17:18:31.790Z,52.10
2018-11-04T17:20:58.909Z,52.50
2018-11-04T17:25:52.717Z,56.60
2018-11-04T17:30:46.493Z,60.00
2018-11-04T17:33:13.655Z,93.60
2018-11-04T17:35:40.713Z,119.30
2018-11-04T17:38:07.830Z,125.20
2018-11-04T17:40:34.920Z,121.30
2018-11-04T17:43:02.034Z,116.77
2018-11-04T17:45:29.184Z,129.35
2018-11-04T17:47:56.311Z,125.85
2018-11-04T17:50:23.409Z,125.45
2018-11-04T17:52:50.570Z,101.65
2018-11-04T17:55:17.675Z,90.10
2018-11-04T17:57:46.838Z,93.45
2018-11-04T18:00:14.993Z,110.90
2018-11-04T18:02:43.625Z,97.57
2018-11-04T18:05:11.384Z,113.55
2018-11-04T18:07:39.663Z,107.55
2018-11-04T18:10:08.253Z,99.85
2018-11-04T18:12:38.213Z,68.10
2018-11-04T18:17:32.253Z,85.75
2018-11-04T18:19:59.385Z,92.35
2018-11-04T18:22:26.465Z,87.00
2018-11-04T18:24:53.553Z,91.90
2018-11-04T18:27:22.640Z,89.95
2018-11-04T18:34:43.165Z,103.90
2018-11-04T18:42:03.736Z,56.60
2018-11-04T18:44:30.862Z,48.90
2018-11-04T18:46:57.993Z,72.15
2018-11-04T18:49:26.097Z,101.55
2018-11-04T18:51:53.209Z,91.50
2018-11-04T18:54:21.392Z,88.70
2018-11-04T18:56:49.350Z,98.10
2018-11-04T18:59:16.555Z,99.10
2018-11-04T19:01:45.892Z,56.90
2018-11-04T19:04:13.839Z,89.40
2018-11-04T19:06:42.002Z,95.27
2018-11-04T19:09:09.717Z,59.00
2018-11-04T19:14:03.500Z,58.10
2018-11-04T19:16:30.642Z,57.90
2018-11-04T19:18:57.747Z,89.30
2018-11-04T19:21:24.850Z,94.80
2018-11-04T19:23:51.928Z,105.20
2018-11-04T19:26:19.037Z,98.90
2018-11-04T19:28:46.144Z,94.00
2018-11-04T19:36:06.941Z,53.20
2018-11-04T19:38:34.316Z,61.95
2018-11-04T19:41:01.975Z,93.60
2018-11-04T19:55:46.577Z,105.70
2018-11-04T20:03:08.264Z,104.20
2018-11-04T20:13:03.392Z,57.90
2018-11-04T20:15:30.869Z,59.60
2018-11-04T20:17:58.566Z,52.00
2018-11-04T20:22:54.726Z,55.60
2018-11-04T20:25:27.977Z,55.90
2018-11-04T20:27:55.200Z,69.80
2018-11-04T20:30:23.166Z,55.50
2018-11-04T20:35:23.590Z,54.90
2018-11-04T20:40:24.955Z,57.50
2018-11-04T20:45:20.596Z,65.30
2018-11-04T20:47:53.925Z,58.90
2018-11-04T20:52:55.076Z,50.20
2018-11-04T20:55:22.947Z,60.50
2018-11-04T21:00:25.154Z,59.10
2018-11-04T21:07:46.889Z,61.20
2018-11-04T21:10:13.985Z,78.00
2018-11-04T21:15:08.630Z,53.80
2018-11-04T21:17:36.319Z,58.40
2018-11-04T21:20:04.023Z,52.00
2018-11-04T21:22:31.896Z,46.90
2018-11-04T21:27:27.286Z,50.05
2018-11-04T21:29:54.476Z,61.50
2018-11-04T21:32:21.517Z,49.80
2018-11-04T21:37:15.293Z,53.50
2018-11-04T21:42:09.062Z,40.20
2018-11-04T21:49:29.553Z,46.70
2018-11-04T21:56:50.251Z,41.80
2018-11-04T22:01:44.025Z,46.90
2018-11-04T22:04:11.326Z,44.70
2018-11-04T22:09:06.021Z,53.30
2018-11-04T22:14:01.003Z,64.10
2018-11-04T22:21:21.291Z,49.15
2018-11-04T22:23:48.401Z,50.90
2018-11-04T22:26:15.505Z,55.40
2018-11-04T22:28:42.589Z,53.60
2018-11-04T22:33:36.384Z,56.20
2018-11-04T22:36:03.480Z,62.30
2018-11-04T22:40:57.278Z,47.35
2018-11-04T22:43:24.365Z,54.10
2018-11-04T22:50:44.819Z,61.60
2018-11-04T22:55:38.605Z,65.90
2018-11-04T23:00:39.561Z,54.00
2018-11-04T23:05:33.346Z,55.20
2018-11-04T23:08:00.437Z,62.00
2018-11-04T23:12:55.360Z,54.40
2018-11-04T23:17:49.202Z,57.60
2018-11-04T23:25:11.011Z,49.80
2018-11-04T23:27:38.266Z,46.50
2018-11-04T23:32:33.221Z,60.60
2018-11-04T23:35:00.340Z,50.30
2018-11-04T23:42:20.780Z,46.50
2018-11-04T23:44:47.860Z,45.40
2018-11-04T23:47:14.965Z,43.20
2018-11-04T23:49:42.038Z,41.85
2018-11-04T23:52:09.148Z,43.40
2018-11-04T23:54:36.245Z,58.90
2018-11-04T23:57:03.362Z,51.90
2018-11-04T23:59:30.577Z,47.90
